Pagrindinis puslapis
METAR-TAF:

METAR-TAF

Oro uostai :

Vientianas, Laosas

platuma: 17-57N, ilguma: 102-34E, Aukštis: 171 m

Dabartinis oras

Ataskaita buvo paskelbta 6 valandos ir 24 minutes, ne 16:00 UTC
Vėjas 8 kt iš Rytų/Šiaurės Rytų
Temperatūra 25°C
Drėgmė 50%
Slėgis 1022 hPa
Matomumas: 4000 m
Su prošvaistėmis ne aukštis 10000 ft
rūkana

METAR: VLVT 211600Z 06008KT 4000 BR BKN100 25/14 Q1022 NOSIG

Laikas: 05:24 (22:24 UTC)

Prognozė

Ataskaita buvo paskelbta 5 valandos ir 24 minutes, ne 17:00 UTC
Prognozė galioja nuo 21 metu 18 UTC su 22 metu 18 UTC
Vėjas 6 kt iš Rytų
Matomumas: 8000 m
Mažai debesys ne aukštis 2000 ft
Mažai debesys ne aukštis 5000 ft
Laikinai
nuo 21 metu 18 UTC su 22 metu 00 UTC
Vėjas 10 kt iš Rytų/Šiaurės Rytų
Matomumas: 4000 m
Išsisklaidę debesys ne aukštis 5000 ft
rūkana

TAF: VLVT 211700Z 2118/2218 09006KT 8000 FEW020 FEW050 TEMPO 2118/2200 06010KT 4000 BR SCT050

Orai ataskaitas ir orų prognozės (METAR, TAF).

turimą stotys yra geltonos ir raudonos taškus žemėlapyje.

Perkelti pele per norėdami pamatyti stoties vardą.

Tada spustelėkite, norėdami matyti oro stebėjimo ir prognozės.

Norėdami pakeisti žemėlapį: spustelėkite ant žalios mygtukų su juodo kryžiaus žemyn,; žalią mygtuką su brūkšneliu, jei norite nutolinti; arba žalių rodyklių gretimoms žemėlapius.


METAR-TAF: